Time;durP1;ratioP1;P1;durP2;ratioP2;P2;SDS_P1;SDS_P2;PMS_P1;PMS_P2;Temp;Humidity;BMP_temperature;BMP_pressure;BME280_temperature;BME280_humidity;BME280_pressure;Samples;Min_cycle;Max_cycle;Signal;HPM_P1;HPM_P2
2022/03/27 00:01:13;;;;;;;24.80;10.80;;;;;;;;;;5083812;22;20484;-94
2022/03/27 00:03:45;;;;;;;18.57;10.10;;;;;;;;;;5097805;28;20456;-95
2022/03/27 00:06:12;;;;;;;18.63;10.10;;;;;;;;;;5098762;28;20464;-93
2022/03/27 00:08:39;;;;;;;16.50;9.23;;;;;;;;;;5100560;28;20433;-93
2022/03/27 00:11:25;;;;;;;20.67;9.90;;;;;;;;;;5097043;28;20485;-93
2022/03/27 00:13:56;;;;;;;21.43;10.87;;;5.20;99.70;;;;;;5099523;28;20544;-94
2022/03/27 00:16:24;;;;;;;19.27;10.77;;;;;;;;;;5100276;28;20441;-95
2022/03/27 00:18:52;;;;;;;23.20;9.90;;;;;;;;;;5100098;28;20440;-92
2022/03/27 00:21:21;;;;;;;23.77;10.97;;;;;;;;;;5098650;28;20460;-94
2022/03/27 00:23:48;;;;;;;15.50;9.00;;;;;;;;;;5098969;28;20460;-96
2022/03/27 00:26:15;;;;;;;19.60;8.97;;;5.10;99.90;;;;;;5098962;28;20444;-94
2022/03/27 00:28:51;;;;;;;14.10;8.67;;;;;;;;;;5097870;28;20437;-94
2022/03/27 00:31:24;;;;;;;16.33;8.70;;;5.10;99.90;;;;;;5141335;22;20511;-92
2022/03/27 00:33:54;;;;;;;18.03;9.47;;;;;;;;;;5082818;28;20468;-94
2022/03/27 00:36:22;;;;;;;18.73;9.33;;;;;;;;;;5098685;28;20433;-94
2022/03/27 00:38:49;;;;;;;21.13;8.23;;;;;;;;;;5097503;28;20445;-95
2022/03/27 00:41:17;;;;;;;20.40;9.57;;;;;;;;;;5098809;28;20800;-94
2022/03/27 00:43:45;;;;;;;15.33;9.00;;;;;;;;;;5098482;28;20457;-94
2022/03/27 00:46:12;;;;;;;17.57;8.83;;;;;;;;;;5099205;28;20452;-94
2022/03/27 00:48:45;;;;;;;15.53;9.27;;;;;;;;;;5098658;28;20467;-94
2022/03/27 00:51:16;;;;;;;16.43;9.73;;;;;;;;;;5097700;28;20844;-94
2022/03/27 00:53:43;;;;;;;22.97;9.90;;;;;;;;;;5098299;28;20426;-93
2022/03/27 00:56:10;;;;;;;19.13;9.70;;;;;;;;;;5098222;28;20634;-94
2022/03/27 00:58:38;;;;;;;20.10;10.70;;;;;;;;;;5097764;28;20440;-93
2022/03/27 01:01:15;;;;;;;18.67;10.07;;;4.70;99.90;;;;;;5097305;28;20477;-93
2022/03/27 01:03:47;;;;;;;17.67;10.07;;;;;;;;;;5092253;28;20447;-93
2022/03/27 01:06:26;;;;;;;21.60;9.37;;;4.60;99.90;;;;;;5097468;28;20440;-95
2022/03/27 01:11:43;;;;;;;24.40;10.00;;;;;;;;;;5097601;28;20471;-93
2022/03/27 01:14:10;;;;;;;16.10;9.30;;;;;;;;;;5096874;28;20557;-92
2022/03/27 01:16:41;;;;;;;24.53;10.77;;;4.50;99.90;;;;;;5098315;28;20493;-93
2022/03/27 01:19:12;;;;;;;25.80;11.20;;;4.50;99.90;;;;;;5096543;28;20463;-93
2022/03/27 01:21:44;;;;;;;24.23;11.30;;;4.50;99.90;;;;;;5093554;28;20463;-95
2022/03/27 01:24:12;;;;;;;17.30;10.03;;;;;;;;;;5092928;28;20453;-93
2022/03/27 01:26:40;;;;;;;15.43;8.60;;;4.40;99.90;;;;;;5097981;28;20444;-92
2022/03/27 01:29:08;;;;;;;18.73;9.13;;;4.40;99.90;;;;;;5100741;22;20484;-94
2022/03/27 01:31:35;;;;;;;19.80;10.10;;;4.40;99.90;;;;;;5093493;28;20481;-92
2022/03/27 01:34:03;;;;;;;21.67;10.70;;;;;;;;;;5097464;28;20493;-92
2022/03/27 01:36:34;;;;;;;22.27;11.23;;;4.50;99.90;;;;;;5097749;28;20471;-93
2022/03/27 01:39:05;;;;;;;16.70;9.80;;;4.40;99.90;;;;;;5096732;28;20437;-92
2022/03/27 01:41:33;;;;;;;18.47;9.03;;;;;;;;;;5094863;28;20464;-94
2022/03/27 01:44:01;;;;;;;17.40;9.80;;;;;;;;;;5102150;28;21009;-94
2022/03/27 01:46:32;;;;;;;27.40;11.33;;;;;;;;;;5116807;22;20484;-94
2022/03/27 01:49:01;;;;;;;22.13;10.40;;;;;;;;;;5107016;28;20437;-93
2022/03/27 01:51:28;;;;;;;14.40;8.80;;;;;;;;;;5094426;28;20484;-94
2022/03/27 01:53:58;;;;;;;20.37;9.70;;;4.30;99.90;;;;;;5097247;28;20459;-94
2022/03/27 01:56:27;;;;;;;17.90;9.67;;;4.40;99.90;;;;;;5097208;28;20459;-93
2022/03/27 01:58:55;;;;;;;23.57;10.70;;;;;;;;;;5094830;28;20465;-93
2022/03/27 02:01:22;;;;;;;20.20;11.17;;;;;;;;;;5097695;28;20418;-92
2022/03/27 02:03:50;;;;;;;17.93;9.43;;;;;;;;;;5097202;28;20480;-92
2022/03/27 02:06:17;;;;;;;17.30;9.30;;;;;;;;;;5092313;28;20456;-94
2022/03/27 02:08:45;;;;;;;21.50;10.30;;;;;;;;;;5092281;28;20461;-93
2022/03/27 02:11:13;;;;;;;23.33;10.67;;;;;;;;;;5097147;28;20476;-93
2022/03/27 02:13:42;;;;;;;21.00;10.90;;;;;;;;;;5034622;28;20486;-93
2022/03/27 02:16:10;;;;;;;18.23;8.70;;;;;;;;;;5035669;28;20575;-93
2022/03/27 02:18:41;;;;;;;17.77;9.60;;;;;;;;;;5036428;28;20444;-93
2022/03/27 02:21:11;;;;;;;19.33;9.73;;;;;;;;;;5035041;28;20554;-94
2022/03/27 02:23:39;;;;;;;16.23;8.83;;;4.00;99.90;;;;;;5035576;28;20456;-94
2022/03/27 02:26:06;;;;;;;15.27;9.47;;;;;;;;;;5035588;28;20928;-94
2022/03/27 02:28:34;;;;;;;16.47;9.47;;;;;;;;;;5034711;28;20525;-92
2022/03/27 02:31:02;;;;;;;17.13;9.80;;;;;;;;;;5047068;28;20473;-93
2022/03/27 02:33:32;;;;;;;19.83;11.10;;;;;;;;;;5100829;28;20449;-91
2022/03/27 02:35:59;;;;;;;21.67;10.87;;;;;;;;;;5100877;28;20954;-94
2022/03/27 02:38:27;;;;;;;19.50;9.80;;;;;;;;;;5057374;28;20453;-92
2022/03/27 02:40:54;;;;;;;17.80;10.60;;;;;;;;;;5055022;28;20489;-94
2022/03/27 02:43:21;;;;;;;16.50;10.23;;;;;;;;;;5056929;28;20438;-92
2022/03/27 02:45:50;;;;;;;18.33;9.17;;;;;;;;;;5055197;28;20470;-93
2022/03/27 02:48:18;;;;;;;21.53;9.83;;;;;;;;;;5056980;28;20454;-92
2022/03/27 02:50:47;;;;;;;18.30;9.00;;;;;;;;;;5058359;28;20520;-95
2022/03/27 02:53:14;;;;;;;19.23;10.60;;;;;;;;;;5054779;28;20462;-92
2022/03/27 02:55:41;;;;;;;19.17;9.77;;;;;;;;;;5062849;28;20458;-93
2022/03/27 02:58:09;;;;;;;19.40;11.13;;;;;;;;;;5100659;28;20452;-93
2022/03/27 03:00:41;;;;;;;18.63;10.67;;;;;;;;;;5100052;28;20448;-91
2022/03/27 03:03:08;;;;;;;20.53;9.17;;;;;;;;;;5096719;28;20431;-92
2022/03/27 03:05:39;;;;;;;23.03;10.80;;;;;;;;;;5097462;28;20449;-93
2022/03/27 03:08:11;;;;;;;21.50;9.90;;;;;;;;;;5100800;28;20457;-93
2022/03/27 03:10:40;;;;;;;24.43;10.83;;;;;;;;;;5099295;28;20893;-91
2022/03/27 03:13:08;;;;;;;20.53;8.70;;;;;;;;;;5099653;28;20460;-93
2022/03/27 03:15:36;;;;;;;16.73;8.60;;;;;;;;;;5099920;28;20525;-94
2022/03/27 03:18:04;;;;;;;17.83;9.70;;;;;;;;;;5100557;28;20441;-92
2022/03/27 03:20:32;;;;;;;14.00;9.93;;;;;;;;;;5100065;28;20956;-92
2022/03/27 03:23:01;;;;;;;22.43;10.53;;;;;;;;;;5100601;28;20843;-93
2022/03/27 03:25:30;;;;;;;23.83;10.40;;;;;;;;;;5098722;28;20432;-92
2022/03/27 03:27:57;;;;;;;16.13;8.93;;;;;;;;;;5096772;28;20479;-94
2022/03/27 03:30:25;;;;;;;17.77;9.80;;;;;;;;;;5099091;28;20433;-93
2022/03/27 03:32:53;;;;;;;16.80;9.43;;;;;;;;;;5100225;28;20511;-91
2022/03/27 03:35:21;;;;;;;17.00;9.90;;;;;;;;;;5094955;28;20480;-92
2022/03/27 03:37:48;;;;;;;20.20;9.87;;;;;;;;;;5097815;28;20455;-94
2022/03/27 03:40:18;;;;;;;18.50;9.83;;;;;;;;;;5099802;28;20441;-94
2022/03/27 03:42:46;;;;;;;23.77;10.13;;;;;;;;;;5097719;28;20430;-92
2022/03/27 03:45:13;;;;;;;18.33;9.97;;;;;;;;;;5098652;28;20988;-94
2022/03/27 03:47:40;;;;;;;18.47;9.73;;;;;;;;;;5098892;28;20457;-91
2022/03/27 03:50:10;;;;;;;15.90;9.90;;;;;;;;;;5094751;28;20445;-92
2022/03/27 03:52:37;;;;;;;16.83;9.50;;;;;;;;;;5092240;28;20485;-93
2022/03/27 03:55:04;;;;;;;17.30;9.37;;;;;;;;;;5095910;28;20815;-92
2022/03/27 03:57:33;;;;;;;13.90;9.70;;;;;;;;;;5098595;28;20449;-92
2022/03/27 04:00:01;;;;;;;19.83;10.80;;;;;;;;;;5097899;28;20461;-93
2022/03/27 04:02:31;;;;;;;23.90;9.33;;;;;;;;;;5098496;28;20437;-93
2022/03/27 04:05:01;;;;;;;16.33;9.13;;;;;;;;;;5099173;28;20939;-94
2022/03/27 04:07:28;;;;;;;13.53;9.10;;;;;;;;;;5097645;28;20478;-93
2022/03/27 04:09:55;;;;;;;26.23;10.03;;;;;;;;;;5098240;28;20456;-92
2022/03/27 04:12:22;;;;;;;15.80;9.27;;;;;;;;;;5098518;28;20503;-93
2022/03/27 04:14:51;;;;;;;18.20;10.10;;;;;;;;;;5094866;28;20441;-92
2022/03/27 04:17:19;;;;;;;22.47;9.57;;;;;;;;;;5098789;28;20441;-92
2022/03/27 04:19:47;;;;;;;21.50;10.43;;;;;;;;;;5097012;28;20429;-91
2022/03/27 04:22:14;;;;;;;17.57;9.13;;;;;;;;;;5099454;28;20807;-93
2022/03/27 04:24:41;;;;;;;23.80;9.17;;;;;;;;;;5094122;28;20452;-93
2022/03/27 04:27:09;;;;;;;18.57;8.93;;;;;;;;;;5096013;28;20456;-93
2022/03/27 04:29:37;;;;;;;16.87;9.00;;;;;;;;;;5098582;28;21012;-92
2022/03/27 04:32:09;;;;;;;16.63;9.13;;;;;;;;;;5096378;28;20484;-94
2022/03/27 04:34:39;;;;;;;15.90;9.30;;;;;;;;;;5087907;28;20477;-94
2022/03/27 04:37:09;;;;;;;21.20;9.70;;;;;;;;;;5101892;22;20484;-93
2022/03/27 04:39:39;;;;;;;16.13;9.13;;;;;;;;;;5097003;28;21045;-94
2022/03/27 04:42:07;;;;;;;16.83;8.90;;;;;;;;;;5093935;28;20550;-94
2022/03/27 04:44:34;;;;;;;15.27;9.20;;;;;;;;;;5086261;28;20485;-94
2022/03/27 04:47:01;;;;;;;21.97;10.83;;;;;;;;;;5078545;28;20454;-95
2022/03/27 04:49:30;;;;;;;16.50;9.20;;;;;;;;;;5084180;28;20446;-94
2022/03/27 04:52:01;;;;;;;17.30;8.83;;;;;;;;;;5084883;28;20483;-94
2022/03/27 04:54:34;;;;;;;21.37;9.83;;;;;;;;;;5086980;28;20444;-93
2022/03/27 04:57:03;;;;;;;14.83;9.00;;;;;;;;;;5099509;28;20445;-94
2022/03/27 04:59:30;;;;;;;22.40;9.47;;;;;;;;;;5077484;28;20468;-95
2022/03/27 05:01:59;;;;;;;22.03;10.27;;;;;;;;;;5077091;28;20467;-95
2022/03/27 05:04:26;;;;;;;17.97;8.80;;;;;;;;;;5063093;28;20433;-93
2022/03/27 05:06:56;;;;;;;14.77;8.30;;;;;;;;;;5097471;28;20433;-93
2022/03/27 05:09:25;;;;;;;15.80;9.83;;;;;;;;;;5100524;28;20449;-94
2022/03/27 05:11:55;;;;;;;16.63;10.23;;;;;;;;;;5079506;28;20481;-93
2022/03/27 05:14:22;;;;;;;15.63;8.80;;;;;;;;;;5089655;28;20473;-95
2022/03/27 05:16:50;;;;;;;16.17;9.50;;;;;;;;;;5100381;28;20464;-93
2022/03/27 05:19:17;;;;;;;14.97;9.03;;;;;;;;;;5100081;28;20793;-92
2022/03/27 05:24:12;;;;;;;18.93;8.57;;;;;;;;;;5135520;22;20551;-94
2022/03/27 05:26:39;;;;;;;28.57;10.20;;;;;;;;;;5115785;28;20205;-94
2022/03/27 05:29:10;;;;;;;14.30;8.37;;;;;;;;;;5116877;28;20432;-93
2022/03/27 05:31:38;;;;;;;18.73;8.53;;;;;;;;;;5131942;27;20443;-93
2022/03/27 05:34:05;;;;;;;18.67;8.50;;;;;;;;;;5118773;28;20467;-93
2022/03/27 05:36:33;;;;;;;14.20;8.20;;;;;;;;;;5118953;28;20444;-93
2022/03/27 05:39:00;;;;;;;18.70;9.90;;;;;;;;;;5117603;28;20950;-95
2022/03/27 05:41:29;;;;;;;19.30;9.40;;;;;;;;;;5117516;28;20452;-92
2022/03/27 05:43:56;;;;;;;17.27;8.43;;;;;;;;;;5117457;28;20539;-95
2022/03/27 05:46:23;;;;;;;19.73;10.03;;;;;;;;;;5118225;28;20447;-95
2022/03/27 05:48:51;;;;;;;21.80;10.30;;;;;;;;;;5117328;28;20467;-93
2022/03/27 05:51:19;;;;;;;27.37;13.40;;;;;;;;;;5116267;28;20794;-93
2022/03/27 05:53:47;;;;;;;21.03;10.80;;;;;;;;;;5117089;28;20447;-93
2022/03/27 05:56:14;;;;;;;21.23;12.23;;;;;;;;;;5118642;28;20497;-94
2022/03/27 05:58:43;;;;;;;14.50;10.40;;;;;;;;;;5122893;28;20475;-93
2022/03/27 06:01:11;;;;;;;17.60;10.50;;;;;;;;;;5119393;28;20452;-93
2022/03/27 06:03:44;;;;;;;18.37;9.43;;;;;;;;;;5119249;28;20463;-93
2022/03/27 06:06:12;;;;;;;16.97;9.80;;;;;;;;;;5120287;28;20432;-93
2022/03/27 06:08:39;;;;;;;18.57;9.47;;;;;;;;;;5119153;28;20424;-94
2022/03/27 06:11:06;;;;;;;18.70;10.70;;;;;;;;;;5118317;28;20911;-93
2022/03/27 06:13:34;;;;;;;18.77;9.23;;;;;;;;;;5114508;28;20499;-93
2022/03/27 06:16:02;;;;;;;19.83;9.40;;;;;;;;;;5113861;28;20452;-91
2022/03/27 06:18:31;;;;;;;13.50;9.83;;;6.40;99.90;;;;;;5119179;28;20448;-93
2022/03/27 06:21:10;;;;;;;18.80;10.63;;;6.70;99.90;;;;;;5117928;28;20436;-92
2022/03/27 06:23:37;;;;;;;22.20;11.03;;;;;;;;;;5128498;28;20491;-90
2022/03/27 06:26:05;;;;;;;14.53;8.77;;;;;;;;;;5117893;28;20439;-92
2022/03/27 06:28:32;;;;;;;18.60;9.03;;;;;;;;;;5111712;28;20440;-92
2022/03/27 06:31:04;;;;;;;14.20;10.20;;;;;;;;;;5104602;28;20804;-92
2022/03/27 06:33:34;;;;;;;17.03;10.03;;;8.20;99.90;;;;;;5118030;28;20515;-91
2022/03/27 06:36:05;;;;;;;15.73;9.97;;;;;;;;;;5097271;28;20489;-92
2022/03/27 06:38:32;;;;;;;18.30;9.90;;;;;;;;;;5100955;28;20449;-93
2022/03/27 06:41:03;;;;;;;19.90;10.40;;;;;;;;;;5099318;28;20920;-92
2022/03/27 06:43:33;;;;;;;16.60;9.83;;;;;;;;;;5104040;28;20506;-92
2022/03/27 06:46:03;;;;;;;16.80;9.90;;;;;;;;;;5115162;28;20429;-95
2022/03/27 06:48:33;;;;;;;16.67;10.77;;;;;;;;;;5106380;28;20482;-94
2022/03/27 06:51:01;;;;;;;18.57;11.97;;;;;;;;;;5098741;28;20946;-94
2022/03/27 06:53:28;;;;;;;16.27;10.60;;;;;;;;;;5100752;28;20484;-95
2022/03/27 06:56:06;;;;;;;19.67;12.20;;;;;;;;;;5100883;28;20441;-94
2022/03/27 06:58:58;;;;;;;17.50;12.10;;;12.00;90.50;;;;;;5098702;28;20476;-94
2022/03/27 07:04:13;;;;;;;18.63;12.17;;;;;;;;;;5099608;28;20420;-95
2022/03/27 07:06:44;;;;;;;20.83;13.10;;;;;;;;;;5101740;28;20429;-94
2022/03/27 07:09:12;;;;;;;16.50;11.60;;;;;;;;;;5101797;28;20881;-91
2022/03/27 07:11:40;;;;;;;21.27;12.67;;;;;;;;;;5115045;22;20581;-92
2022/03/27 07:14:07;;;;;;;18.30;12.70;;;;;;;;;;5093320;28;20437;-93
2022/03/27 07:16:34;;;;;;;20.53;12.63;;;;;;;;;;5095312;28;20440;-94
2022/03/27 07:19:01;;;;;;;19.10;12.40;;;;;;;;;;5097605;28;20437;-90
2022/03/27 07:21:28;;;;;;;19.17;12.33;;;;;;;;;;5097911;28;20436;-93
2022/03/27 07:23:58;;;;;;;16.50;13.43;;;14.10;80.80;;;;;;5094154;28;20449;-91
2022/03/27 07:26:25;;;;;;;19.83;13.97;;;;;;;;;;5097156;28;20435;-92
2022/03/27 07:28:52;;;;;;;18.60;12.20;;;;;;;;;;5106110;28;20432;-92
2022/03/27 07:31:19;;;;;;;16.63;12.83;;;;;;;;;;5107404;28;20437;-92
2022/03/27 07:33:46;;;;;;;18.40;12.73;;;;;;;;;;5106376;28;20495;-92
2022/03/27 07:36:13;;;;;;;17.83;12.30;;;;;;;;;;5102726;28;20523;-92
2022/03/27 07:38:40;;;;;;;15.43;12.50;;;;;;;;;;5100638;28;20460;-95
2022/03/27 07:41:09;;;;;;;21.13;13.17;;;;;;;;;;5112046;22;20449;-94
2022/03/27 07:43:36;;;;;;;23.93;14.57;;;;;;;;;;5060752;28;20939;-93
2022/03/27 07:46:04;;;;;;;18.47;13.40;;;;;;;;;;5067082;28;20447;-92
2022/03/27 07:48:31;;;;;;;17.67;12.67;;;;;;;;;;5060856;28;20451;-92
2022/03/27 07:50:58;;;;;;;20.47;13.17;;;;;;;;;;5062604;28;20442;-93
2022/03/27 07:53:27;;;;;;;16.87;12.27;;;;;;;;;;5058034;28;20521;-95
2022/03/27 07:55:55;;;;;;;18.87;13.03;;;;;;;;;;5059783;28;20919;-94
2022/03/27 07:58:23;;;;;;;15.30;12.20;;;16.90;70.90;;;;;;5038542;28;20475;-92
2022/03/27 08:00:50;;;;;;;20.17;13.07;;;;;;;;;;5036596;28;20478;-90
2022/03/27 08:03:17;;;;;;;18.57;13.30;;;;;;;;;;5036912;28;20927;-91
2022/03/27 08:05:44;;;;;;;17.27;12.73;;;;;;;;;;5037790;28;20486;-92
2022/03/27 08:08:12;;;;;;;23.23;13.40;;;;;;;;;;5045727;28;20430;-90
2022/03/27 08:10:39;;;;;;;20.33;11.90;;;;;;;;;;5044406;28;20447;-90
2022/03/27 08:13:06;;;;;;;17.87;12.90;;;;;;;;;;5043445;28;20983;-90
2022/03/27 08:15:34;;;;;;;17.37;11.57;;;17.30;68.80;;;;;;5042257;28;20462;-90
2022/03/27 08:18:01;;;;;;;19.70;12.60;;;;;;;;;;5044772;28;20447;-90
2022/03/27 08:20:29;;;;;;;18.23;13.00;;;17.40;69.10;;;;;;5040597;28;20459;-94
2022/03/27 08:22:56;;;;;;;15.00;11.83;;;;;;;;;;5048156;28;21021;-91
2022/03/27 08:28:10;;;;;;;22.20;13.80;;;17.60;68.00;;;;;;5035600;28;20458;-87
2022/03/27 08:30:39;;;;;;;21.53;14.03;;;17.70;66.40;;;;;;5044432;28;20440;-91
2022/03/27 08:33:06;;;;;;;20.63;14.60;;;;;;;;;;5039397;28;20483;-94
2022/03/27 08:35:34;;;;;;;21.73;12.33;;;;;;;;;;5033325;28;20444;-92
2022/03/27 08:38:01;;;;;;;20.20;13.37;;;;;;;;;;5033534;28;20448;-94
2022/03/27 08:40:29;;;;;;;20.83;15.40;;;;;;;;;;5036383;28;20463;-92
2022/03/27 08:42:57;;;;;;;27.33;14.50;;;18.50;71.00;;;;;;5035338;28;20995;-88
2022/03/27 08:45:24;;;;;;;17.37;13.70;;;;;;;;;;5034783;28;20947;-90
2022/03/27 08:47:52;;;;;;;19.33;13.13;;;18.40;72.30;;;;;;5035644;28;20455;-90
2022/03/27 08:50:29;;;;;;;17.30;15.03;;;;;;;;;;5032781;28;20510;-90
2022/03/27 08:52:59;;;;;;;18.73;13.90;;;18.80;79.00;;;;;;5037390;28;20517;-91
2022/03/27 08:55:33;;;;;;;23.70;14.27;;;;;;;;;;5036174;28;20458;-88
2022/03/27 08:58:01;;;;;;;20.13;13.83;;;18.70;74.40;;;;;;5036864;28;20491;-89
2022/03/27 09:00:29;;;;;;;15.67;13.17;;;18.80;74.10;;;;;;5036572;28;20447;-89
2022/03/27 09:02:58;;;;;;;20.93;13.27;;;19.00;70.50;;;;;;5035192;28;20447;-90
2022/03/27 09:05:26;;;;;;;16.83;12.77;;;;;;;;;;5032722;28;20435;-88
2022/03/27 09:07:54;;;;;;;18.57;14.67;;;19.60;65.20;;;;;;5035801;28;20973;-89
2022/03/27 09:10:23;;;;;;;21.70;14.90;;;;;;;;;;5037924;28;20451;-91
2022/03/27 09:12:51;;;;;;;103.47;48.53;;;;;;;;;;5037551;28;20479;-93
2022/03/27 09:15:19;;;;;;;32.77;18.20;;;20.20;70.10;;;;;;5047184;28;20499;-91
2022/03/27 09:18:00;;;;;;;17.60;13.00;;;20.70;73.70;;;;;;5058584;28;20448;-90
2022/03/27 09:20:44;;;;;;;20.13;13.93;;;19.70;66.70;;;;;;5044581;28;20443;-91
2022/03/27 09:23:22;;;;;;;20.20;12.73;;;19.70;65.00;;;;;;5045948;28;20447;-93
2022/03/27 09:25:55;;;;;;;20.83;13.60;;;20.50;61.90;;;;;;5044933;28;20815;-93
2022/03/27 09:28:29;;;;;;;19.00;13.57;;;19.90;56.70;;;;;;5046419;28;20504;-92
2022/03/27 09:30:58;;;;;;;30.10;13.70;;;19.60;59.50;;;;;;5033430;28;20562;-91
2022/03/27 09:33:47;;;;;;;20.13;12.80;;;20.10;62.20;;;;;;5035704;28;20490;-93
2022/03/27 09:36:16;;;;;;;20.07;13.57;;;19.50;59.00;;;;;;5035356;28;20484;-95
2022/03/27 09:38:58;;;;;;;21.80;13.77;;;20.20;63.60;;;;;;5034890;28;20459;-95
2022/03/27 09:41:34;;;;;;;23.20;14.50;;;20.90;64.60;;;;;;5034249;28;21002;-92
2022/03/27 09:44:02;;;;;;;19.83;13.77;;;;;;;;;;5035462;28;20454;-92
2022/03/27 09:46:54;;;;;;;18.87;13.47;;;21.50;62.50;;;;;;5016195;28;20480;-93
2022/03/27 09:49:25;;;;;;;21.33;13.87;;;21.40;66.20;;;;;;5015465;28;20626;-91
2022/03/27 09:51:59;;;;;;;19.83;13.50;;;21.80;66.40;;;;;;5015542;28;20928;-93
2022/03/27 09:54:27;;;;;;;17.90;12.03;;;21.80;62.50;;;;;;5015869;28;20526;-94
2022/03/27 09:56:54;;;;;;;15.57;11.40;;;;;;;;;;5017102;28;20480;-94
2022/03/27 09:59:29;;;;;;;23.33;13.40;;;21.70;52.60;;;;;;5016153;28;20840;-93
2022/03/27 10:02:18;;;;;;;22.03;11.50;;;20.90;54.30;;;;;;5016539;28;20447;-92
2022/03/27 10:04:54;;;;;;;16.77;13.17;;;;;;;;;;5016483;28;20467;-93
2022/03/27 10:07:24;;;;;;;14.83;12.23;;;;;;;;;;5012785;28;20463;-94
2022/03/27 10:09:52;;;;;;;16.37;11.80;;;;;;;;;;5018386;28;20448;-93
2022/03/27 10:12:20;;;;;;;19.73;12.73;;;;;;;;;;5017506;28;20445;-95
2022/03/27 10:14:48;;;;;;;15.43;12.60;;;;;;;;;;5016471;28;20506;-92
2022/03/27 10:17:16;;;;;;;20.53;13.33;;;22.60;50.90;;;;;;5012292;28;20511;-92
2022/03/27 10:19:49;;;;;;;16.93;12.53;;;22.80;49.80;;;;;;5017142;28;20502;-92
2022/03/27 10:22:21;;;;;;;18.13;11.93;;;21.90;50.10;;;;;;5013584;28;20440;-91
2022/03/27 10:24:51;;;;;;;25.23;12.53;;;21.20;50.70;;;;;;5013003;28;20940;-93
2022/03/27 10:27:19;;;;;;;17.47;12.17;;;22.00;52.80;;;;;;5015698;28;20440;-92
2022/03/27 10:29:47;;;;;;;17.17;10.73;;;22.70;49.10;;;;;;5015295;28;20468;-92
2022/03/27 10:32:14;;;;;;;17.67;10.93;;;;;;;;;;5016728;28;20475;-92
2022/03/27 10:34:59;;;;;;;14.33;10.07;;;22.40;47.10;;;;;;5007150;28;20495;-90
2022/03/27 10:37:34;;;;;;;15.10;10.87;;;21.50;48.50;;;;;;5017540;28;21011;-92
2022/03/27 10:40:10;;;;;;;22.23;11.37;;;22.10;49.30;;;;;;5012572;28;20444;-89
2022/03/27 10:42:47;;;;;;;16.10;10.67;;;21.20;48.10;;;;;;5015335;28;20475;-92
2022/03/27 10:45:18;;;;;;;19.90;10.60;;;21.60;49.00;;;;;;5015493;28;20459;-91
2022/03/27 10:47:45;;;;;;;20.10;11.80;;;;;;;;;;5016853;28;20444;-91
2022/03/27 10:50:24;;;;;;;20.43;10.87;;;21.70;46.80;;;;;;5016233;28;20443;-92
2022/03/27 10:53:10;;;;;;;16.73;11.57;;;21.80;48.90;;;;;;5017740;28;20436;-93
2022/03/27 10:55:39;;;;;;;16.13;11.23;;;20.90;52.40;;;;;;5024152;28;20507;-92
2022/03/27 10:58:37;;;;;;;22.73;12.47;;;21.70;51.00;;;;;;5016097;28;20483;-94
2022/03/27 11:01:06;;;;;;;15.53;11.43;;;22.40;50.60;;;;;;5019656;28;20467;-93
2022/03/27 11:03:52;;;;;;;19.10;12.40;;;22.20;51.70;;;;;;5020607;28;20474;-90
2022/03/27 11:06:27;;;;;;;17.60;11.97;;;23.00;50.20;;;;;;5019889;28;20447;-92
2022/03/27 11:08:58;;;;;;;18.37;13.60;;;21.20;49.30;;;;;;5016757;28;20436;-91
2022/03/27 11:12:01;;;;;;;15.77;11.70;;;22.10;48.80;;;;;;5019078;28;20476;-91
2022/03/27 11:15:02;;;;;;;17.43;12.87;;;21.70;49.90;;;;;;5019813;28;20595;-92
2022/03/27 11:17:52;;;;;;;17.63;12.30;;;22.60;48.90;;;;;;5021187;28;20447;-94
2022/03/27 11:20:56;;;;;;;15.43;11.93;;;22.60;48.50;;;;;;5016922;28;20456;-93
2022/03/27 11:23:28;;;;;;;15.70;11.23;;;22.40;48.30;;;;;;5019842;28;20452;-91
2022/03/27 11:25:57;;;;;;;13.57;10.70;;;;;;;;;;5020802;28;20432;-95
2022/03/27 11:28:26;;;;;;;17.97;10.77;;;;;;;;;;5019668;28;20456;-95
2022/03/27 11:31:25;;;;;;;19.30;12.33;;;22.70;46.10;;;;;;5018137;28;20452;-93
2022/03/27 11:34:18;;;;;;;16.30;11.90;;;22.20;47.80;;;;;;5017446;28;20507;-92
2022/03/27 11:36:47;;;;;;;18.87;13.03;;;22.20;50.20;;;;;;5016575;28;20479;-88
2022/03/27 11:39:31;;;;;;;20.70;11.57;;;21.90;48.00;;;;;;5016382;28;20456;-89
2022/03/27 11:42:23;;;;;;;13.67;10.83;;;22.20;49.00;;;;;;5015763;28;20475;-88
2022/03/27 11:47:45;;;;;;;19.63;11.90;;;22.60;47.00;;;;;;5015730;28;20447;-88
2022/03/27 11:50:21;;;;;;;17.43;12.23;;;21.80;46.50;;;;;;5030023;28;20506;-90
2022/03/27 11:52:49;;;;;;;16.03;10.50;;;;;;;;;;5014046;28;20460;-91
2022/03/27 11:55:18;;;;;;;17.63;10.97;;;;;;;;;;5013480;28;20508;-92
2022/03/27 11:57:51;;;;;;;17.17;11.27;;;22.40;45.70;;;;;;5020346;28;20464;-92
2022/03/27 12:00:30;;;;;;;17.50;10.83;;;22.30;53.20;;;;;;5014442;28;20452;-93
2022/03/27 12:02:57;;;;;;;16.47;10.67;;;;;;;;;;5016953;28;20440;-91
2022/03/27 12:05:33;;;;;;;16.60;9.83;;;22.80;49.80;;;;;;5017731;28;20450;-93
2022/03/27 12:08:01;;;;;;;18.50;11.40;;;;;;;;;;5017735;28;20510;-91
2022/03/27 12:10:28;;;;;;;13.13;10.60;;;;;;;;;;5018138;28;20495;-92
2022/03/27 12:12:57;;;;;;;17.43;10.97;;;;;;;;;;5017924;28;20448;-93
2022/03/27 12:15:25;;;;;;;15.73;10.50;;;;;;;;;;5018654;28;20492;-92
2022/03/27 12:17:52;;;;;;;15.50;12.33;;;;;;;;;;5017691;28;20440;-93
2022/03/27 12:20:19;;;;;;;21.27;12.00;;;;;;;;;;5016334;28;20476;-89
2022/03/27 12:22:49;;;;;;;19.20;12.60;;;22.00;50.00;;;;;;5016448;28;20451;-89
2022/03/27 12:25:20;;;;;;;19.53;13.07;;;22.80;49.90;;;;;;5017276;28;20464;-93
2022/03/27 12:30:57;;;;;;;14.53;9.70;;;;;;;;;;4945956;29;20519;-91
2022/03/27 12:33:27;;;;;;;18.23;11.07;;;23.30;49.50;;;;;;4992892;28;20460;-92
2022/03/27 12:36:04;;;;;;;13.60;9.53;;;23.40;49.20;;;;;;5019185;28;20468;-94
2022/03/27 12:38:31;;;;;;;17.47;10.80;;;;;;;;;;5008375;28;20451;-91
2022/03/27 12:40:59;;;;;;;17.40;10.67;;;;;;;;;;5014087;28;21002;-93
2022/03/27 12:43:28;;;;;;;11.63;9.70;;;;;;;;;;5036301;28;20430;-96
2022/03/27 12:45:56;;;;;;;16.63;12.50;;;;;;;;;;5036614;28;20451;-92
2022/03/27 12:48:25;;;;;;;15.60;11.80;;;;;;;;;;5031312;28;20447;-88
2022/03/27 12:50:54;;;;;;;14.97;10.63;;;22.70;43.40;;;;;;5032851;28;20451;-90
2022/03/27 12:53:28;;;;;;;14.77;10.70;;;23.20;45.80;;;;;;5036260;28;20492;-92
2022/03/27 12:56:06;;;;;;;17.53;10.53;;;23.80;45.50;;;;;;5035205;28;20448;-88
2022/03/27 12:58:39;;;;;;;14.10;10.73;;;24.00;43.80;;;;;;5033770;28;20789;-89
2022/03/27 13:01:07;;;;;;;14.10;10.03;;;24.40;42.40;;;;;;5031218;28;20463;-86
2022/03/27 13:03:35;;;;;;;12.60;8.70;;;;;;;;;;5034224;28;20454;-86
2022/03/27 13:06:04;;;;;;;13.87;8.47;;;24.40;45.10;;;;;;5033795;28;20978;-85
2022/03/27 13:08:34;;;;;;;16.40;9.93;;;23.60;43.50;;;;;;5033728;28;20458;-86
2022/03/27 13:11:03;;;;;;;12.10;8.67;;;23.50;43.50;;;;;;5034010;28;20478;-85
2022/03/27 13:13:35;;;;;;;13.53;8.90;;;23.50;40.10;;;;;;5032752;28;20447;-88
2022/03/27 13:16:19;;;;;;;18.53;9.57;;;23.20;41.30;;;;;;5033398;28;20818;-87
2022/03/27 13:18:58;;;;;;;12.07;10.40;;;24.10;43.40;;;;;;5031358;28;20447;-87
2022/03/27 13:21:25;;;;;;;19.30;9.73;;;;;;;;;;5030798;28;20448;-88
2022/03/27 13:23:53;;;;;;;12.83;9.73;;;24.30;41.40;;;;;;5032205;28;20474;-91
2022/03/27 13:26:21;;;;;;;18.13;9.83;;;;;;;;;;5033981;28;20455;-93
2022/03/27 13:28:48;;;;;;;14.33;10.73;;;;;;;;;;5035898;28;20455;-93
2022/03/27 13:31:16;;;;;;;13.73;9.30;;;24.10;40.20;;;;;;5033702;28;20463;-92
2022/03/27 13:33:43;;;;;;;15.17;8.97;;;;;;;;;;5030363;28;20443;-90
2022/03/27 13:36:10;;;;;;;11.93;9.30;;;;;;;;;;5031823;28;20447;-93
2022/03/27 13:38:37;;;;;;;14.63;9.47;;;;;;;;;;5034506;28;20448;-93
2022/03/27 13:44:01;;;;;;;13.70;8.63;;;;;;;;;;4993698;28;20477;-92
2022/03/27 13:46:29;;;;;;;12.60;9.30;;;23.90;39.90;;;;;;5026228;28;20448;-92
2022/03/27 13:48:57;;;;;;;14.73;9.83;;;;;;;;;;5036680;28;20459;-91
2022/03/27 13:51:24;;;;;;;14.63;9.17;;;;;;;;;;5031371;28;20447;-89
2022/03/27 13:53:52;;;;;;;11.53;7.73;;;;;;;;;;5031713;28;20447;-93
2022/03/27 13:56:19;;;;;;;12.40;9.10;;;;;;;;;;5036586;28;20447;-92
2022/03/27 13:58:47;;;;;;;16.03;9.33;;;;;;;;;;5036482;28;20885;-91
2022/03/27 14:01:14;;;;;;;15.97;10.00;;;;;;;;;;5032745;28;20470;-90
2022/03/27 14:03:43;;;;;;;16.80;11.33;;;23.90;41.80;;;;;;5034879;28;20443;-92
2022/03/27 14:06:10;;;;;;;11.70;9.07;;;;;;;;;;5036904;28;20863;-91
2022/03/27 14:08:39;;;;;;;11.73;8.70;;;;;;;;;;5035853;28;20436;-93
2022/03/27 14:11:06;;;;;;;12.43;8.20;;;;;;;;;;5036102;28;20493;-93
2022/03/27 14:13:33;;;;;;;12.37;8.10;;;;;;;;;;5023872;28;20435;-93
2022/03/27 14:16:00;;;;;;;12.20;8.40;;;;;;;;;;5034699;28;20467;-91
2022/03/27 14:18:27;;;;;;;13.40;8.20;;;;;;;;;;5026359;28;20448;-91
2022/03/27 14:20:56;;;;;;;19.23;9.10;;;25.00;39.30;;;;;;5032128;28;20935;-95